Time;durP1;ratioP1;P1;durP2;ratioP2;P2;SDS_P1;SDS_P2;PMS_P1;PMS_P2;Temp;Humidity;BMP_temperature;BMP_pressure;BME280_temperature;BME280_humidity;BME280_pressure;Samples;Min_cycle;Max_cycle;Signal;HPM_P1;HPM_P2
2023/04/08 00:01:19;;;;;;;7.82;2.88;;;;;;;6.22;100.00;101324.41;5035720;28;20033;-84
2023/04/08 00:03:45;;;;;;;8.85;4.28;;;;;;;6.22;100.00;101318.19;5017861;28;20036;-83
2023/04/08 00:06:11;;;;;;;10.00;3.55;;;;;;;6.07;100.00;101299.03;5035621;28;20060;-80
2023/04/08 00:08:36;;;;;;;6.80;3.00;;;;;;;6.23;100.00;101327.91;5035380;28;20464;-80
2023/04/08 00:11:43;;;;;;;7.88;3.65;;;;;;;6.24;100.00;101333.09;5017902;28;20119;-85
2023/04/08 00:14:18;;;;;;;3.83;2.60;;;;;;;6.30;100.00;101332.59;5033312;28;20434;-84
2023/04/08 00:16:44;;;;;;;6.10;3.30;;;;;;;6.29;100.00;101330.88;5035413;28;20036;-88
2023/04/08 00:19:10;;;;;;;4.38;2.92;;;;;;;6.21;100.00;101324.53;5035086;28;20037;-88
2023/04/08 00:21:39;;;;;;;7.63;3.10;;;;;;;6.15;100.00;101336.59;5034122;28;20033;-82
2023/04/08 00:24:06;;;;;;;9.02;3.28;;;;;;;6.15;100.00;101348.09;5033667;28;20025;-79
2023/04/08 00:26:31;;;;;;;5.43;2.83;;;;;;;6.07;100.00;101331.91;5035076;28;20048;-83
2023/04/08 00:28:57;;;;;;;7.20;3.75;;;;;;;6.04;100.00;101332.16;5033554;28;20041;-81
2023/04/08 00:31:23;;;;;;;5.32;3.10;;;;;;;6.07;100.00;101342.59;5035112;28;20038;-89
2023/04/08 00:33:48;;;;;;;7.70;3.35;;;;;;;5.95;100.00;101311.59;5034071;28;20475;-82
2023/04/08 00:36:14;;;;;;;4.68;3.63;;;;;;;5.93;100.00;101313.53;5035006;28;20053;-84
2023/04/08 00:38:40;;;;;;;6.95;3.33;;;;;;;5.91;100.00;101311.00;5034848;28;20108;-81
2023/04/08 00:41:05;;;;;;;5.63;2.85;;;;;;;5.97;100.00;101328.31;5033406;28;20029;-85
2023/04/08 00:43:31;;;;;;;5.55;3.55;;;;;;;5.97;100.00;101327.50;5034669;28;20048;-81
2023/04/08 00:45:57;;;;;;;6.00;2.72;;;;;;;5.87;100.00;101316.72;5034770;28;20033;-79
2023/04/08 00:48:23;;;;;;;3.38;2.22;;;;;;;5.96;100.00;101328.47;5033413;28;20033;-81
2023/04/08 00:50:48;;;;;;;6.53;3.17;;;;;;;5.99;100.00;101334.38;5034363;28;20026;-81
2023/04/08 00:53:16;;;;;;;8.10;2.95;;;;;;;6.03;100.00;101333.13;5033503;28;20148;-83
2023/04/08 00:55:42;;;;;;;6.47;2.85;;;;;;;6.07;100.00;101323.91;5000855;28;20065;-85
2023/04/08 00:58:08;;;;;;;5.63;3.00;;;;;;;6.07;100.00;101323.06;5033160;28;20068;-82
2023/04/08 01:00:35;;;;;;;5.53;2.50;;;;;;;5.96;100.00;101299.13;5033049;28;20431;-80
2023/04/08 01:03:17;;;;;;;14.18;4.13;;;;;;;6.07;100.00;101315.88;5032980;28;20036;-82
2023/04/08 01:06:21;;;;;;;9.03;4.30;;;;;;;6.05;100.00;101311.66;5000334;28;20145;-90
2023/04/08 01:08:51;;;;;;;6.70;2.85;;;;;;;6.06;100.00;101306.19;5033585;28;20120;-79
2023/04/08 01:11:16;;;;;;;6.55;3.45;;;;;;;6.04;100.00;101292.13;5000338;28;20034;-81
2023/04/08 01:13:44;;;;;;;7.97;3.40;;;;;;;5.98;100.00;101286.47;5033498;28;20040;-85
2023/04/08 01:16:12;;;;;;;9.90;3.70;;;;;;;5.96;100.00;101293.78;5000377;28;20056;-88
2023/04/08 01:18:38;;;;;;;8.00;4.10;;;;;;;5.91;100.00;101286.97;5000447;28;20026;-78
2023/04/08 01:21:05;;;;;;;4.40;2.25;;;;;;;6.01;100.00;101294.22;5016883;28;20479;-78
2023/04/08 01:23:56;;;;;;;6.32;3.80;;;;;;;6.07;100.00;101299.88;5016387;28;20173;-82
2023/04/08 01:26:25;;;;;;;6.93;3.17;;;;;;;6.07;100.00;101299.88;5016555;28;20026;-81
2023/04/08 01:28:54;;;;;;;8.10;3.20;;;;;;;6.07;100.00;101307.88;5016572;28;20456;-81
2023/04/08 01:31:21;;;;;;;6.00;3.25;;;;;;;6.12;100.00;101308.31;5000318;28;20034;-79
2023/04/08 01:33:48;;;;;;;9.85;3.38;;;;;;;6.07;100.00;101310.53;4984737;28;20037;-88
2023/04/08 01:36:14;;;;;;;8.50;3.00;;;;;;;5.94;100.00;101299.25;5016369;28;20037;-77
2023/04/08 01:38:40;;;;;;;6.15;3.63;;;;;;;5.95;100.00;101306.25;5032899;28;20103;-81
2023/04/08 01:41:08;;;;;;;6.13;3.42;;;;;;;5.79;100.00;101290.69;5032774;28;20036;-80
2023/04/08 01:43:34;;;;;;;6.78;3.05;;;;;;;5.78;100.00;101298.84;4983893;28;20056;-84
2023/04/08 01:46:00;;;;;;;11.63;4.38;;;;;;;5.75;100.00;101309.78;4999856;28;20114;-82
2023/04/08 01:48:27;;;;;;;5.82;3.03;;;;;;;5.74;100.00;101298.22;5032610;28;20034;-78
2023/04/08 01:50:54;;;;;;;8.05;3.50;;;;;;;5.75;100.00;101294.59;5032657;28;20384;-80
2023/04/08 01:53:19;;;;;;;9.48;3.00;;;;;;;5.81;100.00;101299.41;5000151;28;20472;-82
2023/04/08 01:55:45;;;;;;;8.93;3.60;;;;;;;5.82;100.00;101300.25;5032103;28;20032;-87
2023/04/08 01:58:17;;;;;;;8.23;4.40;;;;;;;5.78;100.00;101296.16;5032536;28;20033;-81
2023/04/08 02:00:43;;;;;;;8.13;3.55;;;;;;;5.86;100.00;101307.88;4999722;28;20064;-85
2023/04/08 02:03:11;;;;;;;5.60;2.90;;;;;;;5.92;100.00;101298.47;5016143;28;20025;-82
2023/04/08 02:05:36;;;;;;;10.38;3.28;;;;;;;5.97;100.00;101285.63;5032181;28;20026;-82
2023/04/08 02:08:02;;;;;;;9.40;4.22;;;;;;;5.99;100.00;101281.00;5030887;28;20120;-81
2023/04/08 02:10:28;;;;;;;5.85;3.15;;;;;;;6.10;100.00;101296.09;5014540;28;20391;-86
2023/04/08 02:12:54;;;;;;;6.85;3.95;;;;;;;6.08;100.00;101290.88;5032993;28;20072;-80
2023/04/08 02:15:20;;;;;;;6.68;3.33;;;;;;;6.12;100.00;101286.97;5032194;28;20480;-79
2023/04/08 02:17:52;;;;;;;6.53;3.50;;;;;;;6.14;100.00;101295.69;5033252;28;20033;-81
2023/04/08 02:20:34;;;;;;;14.18;3.72;;;;;;;5.99;100.00;101278.34;5032753;28;20384;-79
2023/04/08 02:23:05;;;;;;;11.07;4.10;;;;;;;6.01;100.00;101292.41;5002090;28;20033;-83
2023/04/08 02:25:34;;;;;;;5.45;2.20;;;;;;;6.02;100.00;101291.41;5020188;28;20464;-84
2023/04/08 02:28:02;;;;;;;8.52;3.70;;;;;;;5.98;100.00;101283.78;5019692;28;20033;-81
2023/04/08 02:30:29;;;;;;;6.00;3.03;;;;;;;5.92;100.00;101275.31;5003750;28;20047;-80
2023/04/08 02:32:56;;;;;;;10.30;3.40;;;;;;;5.98;100.00;101284.66;5019253;28;20034;-77
2023/04/08 02:35:21;;;;;;;7.05;3.60;;;;;;;5.99;100.00;101275.66;5003511;28;20042;-77
2023/04/08 02:37:47;;;;;;;7.22;3.22;;;;;;;6.00;100.00;101274.66;5035880;28;20358;-78
2023/04/08 02:40:29;;;;;;;6.38;3.15;;;;;;;6.04;100.00;101269.94;5037299;28;20107;-88
2023/04/08 02:42:55;;;;;;;11.73;3.00;;;;;;;6.16;100.00;101288.38;5037275;28;20492;-78
2023/04/08 02:45:21;;;;;;;9.30;3.83;;;;;;;6.29;100.00;101279.28;5019484;28;20131;-86
2023/04/08 02:47:47;;;;;;;5.93;2.95;;;;;;;6.51;100.00;101286.25;5036911;28;20041;-81
2023/04/08 02:50:14;;;;;;;5.65;2.45;;;;;;;6.70;100.00;101302.34;5036117;28;20099;-79
2023/04/08 02:52:43;;;;;;;12.35;3.35;;;;;;;6.78;100.00;101293.63;5019703;28;20029;-84
2023/04/08 02:55:10;;;;;;;5.43;2.22;;;;;;;7.04;100.00;101305.50;5019048;28;20022;-77
2023/04/08 02:57:36;;;;;;;8.15;3.53;;;;;;;7.14;100.00;101302.81;5019284;28;20083;-79
2023/04/08 03:00:06;;;;;;;7.53;2.95;;;;;;;7.22;100.00;101302.97;5002718;28;20033;-78
2023/04/08 03:02:31;;;;;;;3.58;2.33;;;;;;;7.22;100.00;101300.31;5018949;28;20432;-78
2023/04/08 03:04:58;;;;;;;2.72;1.65;;;;;;;7.29;100.00;101302.41;5019038;28;20412;-81
2023/04/08 03:07:25;;;;;;;10.43;2.30;;;;;;;7.30;100.00;101294.22;5036001;28;20045;-82
2023/04/08 03:09:50;;;;;;;9.77;3.03;;;;;;;7.34;100.00;101300.16;5019194;28;20041;-82
2023/04/08 03:12:16;;;;;;;3.63;2.17;;;;;;;7.20;100.00;101272.00;5018919;28;20033;-80
2023/04/08 03:14:42;;;;;;;3.58;2.22;;;;;;;7.08;100.00;101267.78;5036547;28;20104;-81
2023/04/08 03:17:07;;;;;;;9.98;3.17;;;;;;;6.97;100.00;101277.63;5035059;28;20030;-79
2023/04/08 03:19:33;;;;;;;6.53;2.38;;;;;;;6.87;100.00;101276.75;5035135;28;20522;-80
2023/04/08 03:21:59;;;;;;;7.90;2.33;;;;;;;6.77;100.00;101283.91;5036301;28;20068;-86
2023/04/08 03:24:24;;;;;;;5.60;2.17;;;;;;;6.62;100.00;101272.78;5034934;28;20076;-82
2023/04/08 03:26:50;;;;;;;2.63;1.60;;;;;;;6.58;100.00;101282.88;5036283;28;20479;-81
2023/04/08 03:29:16;;;;;;;6.10;2.42;;;;;;;6.56;100.00;101282.19;5035996;28;20036;-78
2023/04/08 03:31:41;;;;;;;4.13;2.50;;;;;;;6.49;100.00;101274.88;5034964;28;20041;-86
2023/04/08 03:34:07;;;;;;;7.78;2.67;;;;;;;6.47;100.00;101266.97;5034101;28;20456;-78
2023/04/08 03:36:35;;;;;;;4.22;1.80;;;;;;;6.50;100.00;101266.69;5034846;28;20045;-81
2023/04/08 03:39:02;;;;;;;3.63;2.00;;;;;;;6.59;100.00;101265.91;5035016;28;20108;-82
2023/04/08 03:41:29;;;;;;;10.95;3.00;;;;;;;6.65;100.00;101266.31;5035798;28;20365;-79
2023/04/08 03:43:55;;;;;;;4.68;2.40;;;;;;;6.66;100.00;101271.50;5034434;28;20032;-82
2023/04/08 03:46:21;;;;;;;6.20;2.53;;;;;;;6.63;100.00;101257.59;5036026;28;20041;-81
2023/04/08 03:48:47;;;;;;;10.68;2.00;;;;;;;6.76;100.00;101269.72;5035937;28;20030;-79
2023/04/08 03:51:13;;;;;;;5.93;2.58;;;;;;;6.75;100.00;101267.19;5034641;28;20043;-79
2023/04/08 03:53:38;;;;;;;3.42;2.30;;;;;;;6.62;100.00;101247.91;5034575;28;20025;-81
2023/04/08 03:56:05;;;;;;;1.50;0.93;;;;;;;6.53;100.00;101241.53;5035325;28;20059;-81
2023/04/08 03:58:31;;;;;;;4.13;2.38;;;;;;;6.73;100.00;101271.81;4985916;28;20099;-77
2023/04/08 04:01:00;;;;;;;4.20;1.88;;;;;;;6.65;100.00;101282.38;5035813;28;20460;-88
2023/04/08 04:03:28;;;;;;;2.92;1.38;;;;;;;6.54;100.00;101278.81;5034223;28;20052;-82
2023/04/08 04:05:54;;;;;;;6.60;2.35;;;;;;;6.41;100.00;101280.06;5034651;28;20533;-87
2023/04/08 04:08:20;;;;;;;2.97;2.10;;;;;;;6.16;100.00;101247.47;5034313;28;20033;-88
2023/04/08 04:10:45;;;;;;;5.70;2.22;;;;;;;6.15;100.00;101269.84;5035584;28;20061;-79
2023/04/08 04:13:11;;;;;;;2.85;1.67;;;;;;;6.11;100.00;101266.59;5034082;28;20475;-81
2023/04/08 04:15:38;;;;;;;5.20;2.35;;;;;;;6.07;100.00;101273.16;5035296;28;20033;-82
2023/04/08 04:18:04;;;;;;;7.45;2.50;;;;;;;6.02;100.00;101272.72;5001631;28;20475;-82
2023/04/08 04:20:30;;;;;;;5.65;2.25;;;;;;;5.95;100.00;101268.88;5001681;28;20026;-79
2023/04/08 04:22:56;;;;;;;9.75;2.30;;;;;;;5.83;100.00;101248.59;5034034;28;20103;-82
2023/04/08 04:25:22;;;;;;;5.45;2.03;;;;;;;5.92;100.00;101261.13;5034104;28;20120;-83
2023/04/08 04:27:47;;;;;;;5.55;2.17;;;;;;;5.97;100.00;101261.59;5033868;28;20464;-79
2023/04/08 04:30:14;;;;;;;4.85;1.45;;;;;;;5.98;100.00;101265.97;5035166;28;20083;-85
2023/04/08 04:32:41;;;;;;;5.60;2.13;;;;;;;5.91;100.00;101267.44;5034996;28;20029;-80
2023/04/08 04:35:09;;;;;;;6.10;1.98;;;;;;;5.81;100.00;101261.22;5017689;28;20038;-82
2023/04/08 04:37:35;;;;;;;5.95;2.30;;;;;;;5.80;100.00;101263.03;5017618;28;20051;-80
2023/04/08 04:40:02;;;;;;;6.53;1.92;;;;;;;5.80;100.00;101275.53;5035071;28;20026;-86
2023/04/08 04:42:27;;;;;;;3.85;2.20;;;;;;;5.80;100.00;101276.38;5000928;28;20044;-81
2023/04/08 04:44:53;;;;;;;6.72;2.20;;;;;;;5.77;100.00;101281.13;5034170;28;20029;-83
2023/04/08 04:47:19;;;;;;;3.67;1.88;;;;;;;5.64;100.00;101281.34;5033023;28;20491;-80
2023/04/08 04:49:44;;;;;;;8.57;2.47;;;;;;;5.61;100.00;101282.44;5034866;28;20396;-79
2023/04/08 04:52:10;;;;;;;6.38;2.10;;;;;;;5.62;100.00;101277.97;5034477;28;20470;-82
2023/04/08 04:54:39;;;;;;;4.80;2.10;;;;;;;5.34;100.00;101245.63;5034317;28;20037;-79
2023/04/08 04:57:05;;;;;;;4.90;2.17;;;;;;;5.47;100.00;101280.94;5034746;28;20034;-80
2023/04/08 04:59:31;;;;;;;3.88;1.98;;;;;;;5.50;100.00;101291.38;5034594;28;20030;-79
2023/04/08 05:01:59;;;;;;;5.25;2.08;;;;;;;5.43;100.00;101281.34;5034700;28;20108;-80
2023/04/08 05:04:25;;;;;;;7.07;2.22;;;;;;;5.28;100.00;101278.97;5000976;28;20033;-81
2023/04/08 05:06:51;;;;;;;5.82;1.88;;;;;;;5.40;100.00;101305.56;5034227;28;20031;-81
2023/04/08 05:09:17;;;;;;;3.80;2.22;;;;;;;5.44;100.00;101296.38;5033180;28;20033;-81
2023/04/08 05:11:42;;;;;;;8.77;2.85;;;;;;;5.47;100.00;101296.09;5033193;28;20523;-82
2023/04/08 05:14:08;;;;;;;7.75;3.13;;;;;;;5.58;100.00;101289.84;5032812;28;20033;-79
2023/04/08 05:16:35;;;;;;;12.07;3.05;;;;;;;5.51;100.00;101281.53;5034228;28;20029;-80
2023/04/08 05:19:01;;;;;;;6.07;2.10;;;;;;;5.44;100.00;101275.03;5032723;28;20036;-87
2023/04/08 05:21:26;;;;;;;5.88;2.55;;;;;;;5.56;100.00;101295.34;5033698;28;20029;-81
2023/04/08 05:23:53;;;;;;;8.55;2.03;;;;;;;5.59;100.00;101289.72;5034171;28;20032;-78
2023/04/08 05:26:26;;;;;;;6.47;2.72;;;;;;;5.62;100.00;101278.78;5017837;28;20467;-79
2023/04/08 05:28:51;;;;;;;3.30;2.65;;;;;;;5.62;100.00;101283.28;5033148;28;20033;-87
2023/04/08 05:31:18;;;;;;;5.20;3.17;;;;;;;5.55;100.00;101287.44;5034171;28;20028;-79
2023/04/08 05:33:43;;;;;;;8.52;2.85;;;;;;;5.56;100.00;101294.47;5032673;28;20471;-79
2023/04/08 05:36:13;;;;;;;12.02;3.35;;;;;;;5.58;100.00;101297.84;5033820;28;20028;-79
2023/04/08 05:38:39;;;;;;;4.70;2.72;;;;;;;5.50;100.00;101278.03;5000145;28;20041;-82
2023/04/08 05:41:06;;;;;;;9.02;2.40;;;;;;;5.67;100.00;101292.59;5016721;28;20037;-81
2023/04/08 05:43:35;;;;;;;7.20;2.72;;;;;;;5.79;100.00;101290.69;5033693;28;20029;-82
2023/04/08 05:46:05;;;;;;;3.60;2.22;;;;;;;5.84;100.00;101268.94;5033800;28;20033;-83
2023/04/08 05:48:34;;;;;;;5.03;2.25;;;;;;;5.98;100.00;101257.09;5016456;28;20072;-83
2023/04/08 05:51:00;;;;;;;3.53;2.20;;;;;;;6.31;100.00;101285.34;5032661;28;20443;-83
2023/04/08 05:53:28;;;;;;;8.10;2.30;;;;;;;6.46;100.00;101288.50;5033323;28;20379;-80
2023/04/08 05:55:54;;;;;;;7.40;2.70;;;;;;;6.57;100.00;101283.88;5033588;28;20037;-82
2023/04/08 05:58:20;;;;;;;11.85;2.40;;;;;;;6.67;100.00;101285.72;5032273;28;20091;-83
2023/04/08 06:00:46;;;;;;;7.93;2.50;;;;;;;6.81;100.00;101288.00;5033350;28;20029;-80
2023/04/08 06:03:14;;;;;;;11.05;2.53;;;;;;;6.88;100.00;101289.16;5033500;28;20396;-81
2023/04/08 06:05:40;;;;;;;5.90;2.83;;;;;;;6.94;100.00;101283.25;5033638;28;20029;-81
2023/04/08 06:08:05;;;;;;;4.25;2.15;;;;;;;6.87;100.00;101263.38;5033317;28;20032;-81
2023/04/08 06:10:34;;;;;;;4.55;2.55;;;;;;;7.07;100.00;101279.47;5032344;28;20029;-83
2023/04/08 06:12:59;;;;;;;6.55;2.20;;;;;;;7.16;100.00;101290.13;5033260;28;20511;-77
2023/04/08 06:15:25;;;;;;;4.45;1.77;;;;;;;7.15;100.00;101274.25;5033339;28;20053;-82
2023/04/08 06:17:51;;;;;;;7.07;2.55;;;;;;;7.17;100.00;101288.31;5033087;28;20369;-80
2023/04/08 06:20:17;;;;;;;6.60;2.40;;;;;;;7.17;100.00;101288.31;5033556;28;20036;-80
2023/04/08 06:22:42;;;;;;;4.72;2.42;;;;;;;7.20;100.00;101288.06;5032558;28;20033;-81
2023/04/08 06:25:08;;;;;;;5.40;2.80;;;;;;;7.24;100.00;101302.81;5036966;28;20131;-80
2023/04/08 06:27:34;;;;;;;7.03;2.70;;;;;;;7.25;100.00;101302.69;5035330;28;20036;-78
2023/04/08 06:29:59;;;;;;;5.93;2.70;;;;;;;7.20;100.00;101293.41;5016406;28;20539;-77
2023/04/08 06:32:25;;;;;;;3.15;2.20;;;;;;;7.26;100.00;101300.84;4999666;28;20380;-85
2023/04/08 06:34:51;;;;;;;8.52;2.50;;;;;;;7.41;100.00;101309.28;5032368;28;20057;-83
2023/04/08 06:37:16;;;;;;;4.43;2.55;;;;;;;7.44;100.00;101304.50;5031888;28;20029;-86
2023/04/08 06:39:43;;;;;;;5.28;2.45;;;;;;;7.57;100.00;101317.59;5032181;28;20047;-79
2023/04/08 06:42:08;;;;;;;7.03;2.65;;;;;;;7.60;100.00;101321.81;5033330;28;20040;-79
2023/04/08 06:44:34;;;;;;;4.75;2.05;;;;;;;7.63;100.00;101306.31;5033282;28;20029;-86
2023/04/08 06:47:00;;;;;;;7.55;3.15;;;;;;;7.84;100.00;101310.66;5032881;28;20025;-81
2023/04/08 06:49:26;;;;;;;5.20;2.90;;;;;;;8.00;100.00;101323.44;5033364;28;20416;-84
2023/04/08 06:51:54;;;;;;;6.15;2.45;;;;;;;8.10;100.00;101327.78;5032893;28;20032;-78
2023/04/08 06:54:20;;;;;;;7.30;2.22;;;;;;;8.15;100.00;101319.31;5032817;28;20036;-85
2023/04/08 06:56:45;;;;;;;7.93;2.22;;;;;;;8.32;100.00;101318.50;5032075;28;20037;-79
2023/04/08 06:59:11;;;;;;;4.78;2.30;;;;;;;8.50;100.00;101337.38;5033014;28;20093;-84
2023/04/08 07:01:37;;;;;;;5.70;2.20;;;;;;;8.50;100.00;101325.81;5033264;28;20033;-83
2023/04/08 07:04:05;;;;;;;4.28;2.05;;;;;;;8.65;100.00;101336.88;5031819;28;20033;-86
2023/04/08 07:06:31;;;;;;;9.65;3.65;;;;;;;8.69;100.00;101341.78;5033056;28;20026;-86
2023/04/08 07:08:59;;;;;;;5.55;2.35;;;;;;;8.76;100.00;101332.16;5016437;28;20029;-84
2023/04/08 07:11:26;;;;;;;4.80;2.55;;;;;;;8.93;100.00;101338.53;5036264;28;20483;-88
2023/04/08 07:13:51;;;;;;;7.68;2.95;;;;;;;9.02;100.00;101344.84;5036624;28;20112;-83
2023/04/08 07:16:17;;;;;;;8.70;3.83;;;;;;;9.10;100.00;101339.56;5036331;28;20083;-84
2023/04/08 07:18:42;;;;;;;9.93;3.72;;;;;;;9.22;100.00;101351.75;5036338;28;20042;-86
2023/04/08 07:21:08;;;;;;;7.88;4.15;;;;;;;9.41;100.00;101369.56;5035998;28;20459;-82
2023/04/08 07:23:34;;;;;;;2.60;1.88;;;;;;;9.56;100.00;101355.59;5037367;28;20041;-91
2023/04/08 07:26:04;;;;;;;6.45;2.13;;;;;;;10.04;100.00;101355.13;5035553;28;20025;-89
2023/04/08 07:28:30;;;;;;;4.72;2.38;;;;;;;10.62;100.00;101374.31;5036452;28;20033;-87
2023/04/08 07:30:56;;;;;;;7.43;2.08;;;;;;;11.23;100.00;101373.16;5018444;28;20112;-81
2023/04/08 07:33:22;;;;;;;5.88;2.15;;;;;;;11.13;100.00;101367.94;5036418;28;20064;-82
2023/04/08 07:35:48;;;;;;;10.30;2.55;;;;;;;12.73;91.58;101359.22;5036263;28;20516;-86
2023/04/08 07:38:14;;;;;;;4.72;2.90;;;;;;;13.97;84.05;101373.63;5041202;28;20120;-82
2023/04/08 07:40:40;;;;;;;4.30;2.08;;;;;;;13.91;80.28;101362.69;5038798;28;20034;-83
2023/04/08 07:43:06;;;;;;;6.00;2.60;;;;;;;14.90;74.82;101364.16;5036094;28;20033;-82
2023/04/08 07:45:32;;;;;;;5.80;2.60;;;;;;;15.71;71.49;101365.88;5035957;28;20032;-79
2023/04/08 07:47:57;;;;;;;6.90;2.95;;;;;;;16.78;67.90;101365.59;5035061;28;20451;-80
2023/04/08 07:50:23;;;;;;;4.35;2.15;;;;;;;17.95;61.09;101374.44;5035751;28;20107;-91
2023/04/08 07:52:48;;;;;;;9.25;3.25;;;;;;;18.54;57.06;101370.78;5035668;28;20040;-82
2023/04/08 07:55:14;;;;;;;11.45;2.95;;;;;;;18.62;56.03;101367.84;5035964;28;20108;-85
2023/04/08 07:57:40;;;;;;;4.55;1.60;;;;;;;17.58;56.37;101365.81;5036191;28;20109;-81
2023/04/08 08:00:07;;;;;;;6.70;2.28;;;;;;;15.94;60.67;101366.50;5034566;28;20026;-80
2023/04/08 08:02:33;;;;;;;5.88;2.03;;;;;;;14.67;65.59;101366.97;5002278;28;20120;-85
2023/04/08 08:05:00;;;;;;;4.05;1.92;;;;;;;14.00;70.27;101373.25;5018212;28;20033;-92
2023/04/08 08:07:25;;;;;;;5.90;2.40;;;;;;;14.06;72.40;101364.41;5017742;28;20029;-83
2023/04/08 08:09:51;;;;;;;7.38;1.92;;;;;;;14.94;69.73;101370.84;5035808;28;20026;-87
2023/04/08 08:12:17;;;;;;;8.65;2.30;;;;;;;16.15;64.07;101370.19;5036401;28;20029;-93
2023/04/08 08:14:42;;;;;;;6.85;2.33;;;;;;;15.58;65.14;101370.09;5034377;28;20532;-83
2023/04/08 08:17:08;;;;;;;6.28;2.28;;;;;;;14.90;67.82;101375.00;5035154;28;20499;-86
2023/04/08 08:19:34;;;;;;;5.80;2.13;;;;;;;14.39;70.39;101369.47;5034581;28;20113;-85
2023/04/08 08:21:59;;;;;;;8.38;3.13;;;;;;;13.97;71.96;101384.44;5033932;28;20468;-81
2023/04/08 08:24:25;;;;;;;4.88;2.35;;;;;;;13.37;75.93;101369.03;5017625;28;20036;-84
2023/04/08 08:26:51;;;;;;;3.90;2.03;;;;;;;12.98;76.18;101367.19;5017575;28;20034;-83
2023/04/08 08:29:16;;;;;;;8.35;2.63;;;;;;;12.79;77.48;101363.09;5017526;28;20465;-83
2023/04/08 08:31:42;;;;;;;6.15;2.97;;;;;;;12.75;79.69;101377.94;5035123;28;20499;-83
2023/04/08 08:34:07;;;;;;;2.65;1.92;;;;;;;12.70;79.12;101373.06;5033731;28;20034;-77
2023/04/08 08:36:33;;;;;;;3.67;1.80;;;;;;;12.75;78.87;101376.09;5034715;28;20033;-89
2023/04/08 08:38:58;;;;;;;9.48;2.25;;;;;;;12.59;79.08;101375.28;5017003;28;20395;-81
2023/04/08 08:41:24;;;;;;;3.28;1.98;;;;;;;12.47;80.54;101374.84;5017345;28;20037;-77
2023/04/08 08:43:50;;;;;;;2.75;1.65;;;;;;;12.34;80.37;101375.38;5034817;28;20384;-77
2023/04/08 08:46:17;;;;;;;9.80;3.30;;;;;;;12.25;81.46;101379.97;5034927;28;20464;-78
2023/04/08 08:48:44;;;;;;;3.58;1.83;;;;;;;12.28;82.07;101385.00;5033570;28;20041;-78
2023/04/08 08:51:10;;;;;;;8.40;3.88;;;;;;;12.27;83.18;101380.59;5016765;28;20064;-77
2023/04/08 08:53:36;;;;;;;5.68;2.72;;;;;;;12.44;83.09;101372.50;5001096;28;20120;-77
2023/04/08 08:56:03;;;;;;;10.20;4.75;;;;;;;12.84;81.34;101387.69;5016856;28;20575;-79
2023/04/08 08:58:28;;;;;;;10.15;3.80;;;;;;;12.84;79.49;101367.97;5000709;28;20120;-77
2023/04/08 09:00:54;;;;;;;4.80;2.03;;;;;;;12.94;77.64;101371.28;5034298;28;20116;-78
2023/04/08 09:03:26;;;;;;;4.45;2.80;;;;;;;12.92;77.45;101370.63;5033093;28;20384;-79
2023/04/08 09:05:59;;;;;;;9.63;3.30;;;;;;;12.68;77.78;101345.41;5017095;28;20042;-77
2023/04/08 09:08:30;;;;;;;5.95;2.75;;;;;;;12.69;78.08;101370.53;5016688;28;20033;-78
2023/04/08 09:11:16;;;;;;;7.28;3.35;;;;;;;12.81;78.57;101371.84;5033972;28;20605;-80
2023/04/08 09:13:42;;;;;;;5.18;2.50;;;;;;;12.85;76.61;101375.03;4985186;28;20033;-78
2023/04/08 09:16:12;;;;;;;8.15;3.67;;;;;;;14.18;73.59;101372.06;5016619;28;20082;-79
2023/04/08 09:18:39;;;;;;;3.97;2.78;;;;;;;14.48;69.41;101373.78;5032921;28;20112;-78
2023/04/08 09:21:06;;;;;;;4.70;2.30;;;;;;;14.24;69.66;101364.06;5032793;28;20037;-77
2023/04/08 09:23:41;;;;;;;1.70;1.10;;;;;;;13.94;69.70;101370.44;5032873;28;20037;-78
2023/04/08 09:26:09;;;;;;;5.70;2.35;;;;;;;13.94;71.37;101370.44;5016513;28;20128;-78
2023/04/08 09:28:36;;;;;;;5.30;2.58;;;;;;;14.25;68.89;101364.91;5032684;28;20033;-78
2023/04/08 09:31:18;;;;;;;5.78;2.40;;;;;;;15.57;64.77;101368.41;5032725;28;20045;-78
2023/04/08 09:33:44;;;;;;;;;;;;;;;15.93;59.67;101372.97;5000957;28;20064;-78
2023/04/08 09:36:10;;;;;;;5.93;2.50;;;;;;;15.75;61.20;101362.59;5033913;28;19916;-78
2023/04/08 09:38:36;;;;;;;3.90;1.70;;;;;;;15.70;61.30;101377.75;5016213;28;20029;-78
2023/04/08 09:41:05;;;;;;;8.90;2.80;;;;;;;16.31;58.85;101385.34;5032371;28;20029;-78
2023/04/08 09:43:35;;;;;;;6.28;2.20;;;;;;;16.30;57.68;101365.50;5032727;28;20041;-78
2023/04/08 09:46:04;;;;;;;5.50;2.92;;;;;;;16.30;57.81;101389.94;5000520;28;20045;-79
2023/04/08 09:48:39;;;;;;;6.88;2.78;;;;;;;16.65;56.90;101385.34;5033689;28;20079;-78
2023/04/08 09:51:05;;;;;;;4.53;2.78;;;;;;;17.43;55.44;101386.91;5015849;28;20029;-80
2023/04/08 09:53:36;;;;;;;6.13;2.30;;;;;;;18.17;52.58;101375.06;5032512;28;20040;-79
2023/04/08 09:56:06;;;;;;;8.75;2.60;;;;;;;17.43;53.25;101393.19;5015816;28;20087;-78
2023/04/08 09:58:41;;;;;;;6.38;2.70;;;;;;;16.65;55.44;101392.66;5031305;28;20052;-77
2023/04/08 10:01:09;;;;;;;6.63;2.30;;;;;;;16.27;55.73;101396.59;5013543;28;20032;-79
2023/04/08 10:03:46;;;;;;;6.25;2.53;;;;;;;15.73;58.89;101391.75;5015686;28;20037;-77
2023/04/08 10:06:12;;;;;;;2.80;1.80;;;;;;;15.85;57.75;101383.09;5014233;28;20408;-81
2023/04/08 10:08:38;;;;;;;3.28;1.75;;;;;;;15.18;59.42;101368.84;5032764;28;20021;-82
2023/04/08 10:11:03;;;;;;;7.32;3.05;;;;;;;14.67;62.57;101393.22;4999408;28;20479;-81
2023/04/08 10:13:29;;;;;;;5.38;3.65;;;;;;;14.45;64.43;101393.09;5032198;28;20156;-80
2023/04/08 10:16:17;;;;;;;6.32;2.85;;;;;;;14.50;63.83;101406.91;5015627;28;20029;-81
2023/04/08 10:18:43;;;;;;;6.40;2.65;;;;;;;14.60;62.26;101398.53;5015504;28;20037;-81
2023/04/08 10:21:34;;;;;;;7.40;3.15;;;;;;;14.68;63.46;101390.31;4999043;28;20033;-81
2023/04/08 10:24:05;;;;;;;10.20;3.75;;;;;;;15.22;61.12;101383.69;5031700;28;20127;-79
2023/04/08 10:26:40;;;;;;;9.52;5.00;;;;;;;15.95;61.49;101378.16;5001054;28;20132;-79
2023/04/08 10:29:18;;;;;;;;;;;;;;;16.95;57.06;101370.66;4999171;28;20514;-79
2023/04/08 10:31:48;;;;;;;2.00;1.23;;;;;;;17.98;50.14;101369.41;5032972;28;19923;-82
2023/04/08 10:34:18;;;;;;;9.13;3.50;;;;;;;17.61;52.44;101376.28;4999389;28;20108;-82
2023/04/08 10:36:44;;;;;;;7.07;2.63;;;;;;;17.42;53.09;101361.63;4999005;28;20502;-82
2023/04/08 10:39:11;;;;;;;3.10;2.10;;;;;;;17.47;52.33;101364.56;4998856;28;20038;-81
2023/04/08 10:41:42;;;;;;;5.22;2.53;;;;;;;18.53;51.91;101368.31;5015534;28;20033;-82
2023/04/08 10:44:34;;;;;;;6.50;3.33;;;;;;;18.79;48.09;101360.06;5001769;28;20030;-79
2023/04/08 10:47:00;;;;;;;2.72;1.88;;;;;;;18.32;49.31;101363.94;5033173;28;20064;-76
2023/04/08 10:49:33;;;;;;;6.80;2.20;;;;;;;18.24;49.67;101359.56;5035169;28;20033;-79
2023/04/08 10:51:59;;;;;;;5.20;2.20;;;;;;;17.93;50.17;101347.44;5019060;28;20022;-78
2023/04/08 10:54:26;;;;;;;5.82;2.38;;;;;;;18.34;49.23;101346.34;5018653;28;20056;-79
2023/04/08 10:56:52;;;;;;;2.75;1.70;;;;;;;18.31;47.39;101345.91;5035132;28;20119;-77
2023/04/08 10:59:31;;;;;;;3.13;2.10;;;;;;;17.96;48.60;101352.47;5019021;28;20043;-80
2023/04/08 11:02:01;;;;;;;4.55;2.42;;;;;;;18.39;47.98;101346.56;5002516;28;20463;-79
2023/04/08 11:04:26;;;;;;;3.33;1.95;;;;;;;18.41;46.77;101333.53;5035215;28;20026;-79
2023/04/08 11:06:52;;;;;;;8.98;3.28;;;;;;;18.79;45.46;101343.72;5036424;28;20033;-82
2023/04/08 11:09:18;;;;;;;3.55;1.90;;;;;;;18.43;45.79;101347.78;5018762;28;20029;-78
2023/04/08 11:11:45;;;;;;;6.38;2.08;;;;;;;19.82;44.45;101350.03;5034644;28;20025;-81
2023/04/08 11:14:11;;;;;;;5.60;2.35;;;;;;;21.22;42.48;101352.06;5002149;28;20029;-76
2023/04/08 11:16:40;;;;;;;4.63;2.28;;;;;;;20.80;41.86;101347.38;5018701;28;20044;-81
2023/04/08 11:19:06;;;;;;;5.22;1.90;;;;;;;20.07;43.22;101345.41;5034784;28;20056;-79
2023/04/08 11:21:36;;;;;;;5.32;2.22;;;;;;;19.31;46.47;101340.91;5035057;28;20152;-76
2023/04/08 11:24:10;;;;;;;5.07;2.42;;;;;;;18.72;46.54;101342.88;5002420;28;20135;-78
2023/04/08 11:26:37;;;;;;;6.57;2.33;;;;;;;17.91;46.69;101341.38;5018929;28;20090;-79